Time;durP1;ratioP1;P1;durP2;ratioP2;P2;SDS_P1;SDS_P2;PMS_P1;PMS_P2;Temp;Humidity;BMP_temperature;BMP_pressure;BME280_temperature;BME280_humidity;BME280_pressure;Samples;Min_cycle;Max_cycle;Signal;HPM_P1;HPM_P2
2023/02/03 00:00:37;;;;;;;170.27;22.40;;;;;;;;;;5033032;28;20388;-28
2023/02/03 00:03:04;;;;;;;244.98;26.75;;;;;;;;;;5033215;28;20032;-28
2023/02/03 00:05:31;;;;;;;308.30;31.42;;;;;;;;;;5033051;28;20064;-28
2023/02/03 00:07:58;;;;;;;295.20;30.75;;;;;;;;;;5032411;28;20039;-28
2023/02/03 00:10:25;;;;;;;335.65;33.13;;;;;;;;;;5033038;28;20040;-28
2023/02/03 00:12:53;;;;;;;330.42;32.10;;;;;;;;;;5018112;28;20037;-28
2023/02/03 00:15:22;;;;;;;295.25;29.90;;;;;;;;;;5031101;28;20030;-28
2023/02/03 00:17:49;;;;;;;284.92;30.73;;;;;;;;;;5020010;28;20024;-28
2023/02/03 00:20:16;;;;;;;325.20;35.55;;;;;;;;;;5030756;28;20030;-28
2023/02/03 00:22:43;;;;;;;406.27;41.15;;;;;;;;;;5035063;28;20029;-28
2023/02/03 00:25:10;;;;;;;461.25;46.90;;;;;;;;;;5044181;28;20110;-29
2023/02/03 00:27:37;;;;;;;344.10;37.10;;;;;;;;;;5024130;28;20072;-29
2023/02/03 00:30:04;;;;;;;359.77;33.47;;;;;;;;;;5012214;28;20072;-28
2023/02/03 00:32:31;;;;;;;328.23;32.67;;;;;;;;;;5022910;28;20567;-29
2023/02/03 00:34:58;;;;;;;317.50;34.28;;;;;;;;;;5012881;28;20022;-28
2023/02/03 00:37:25;;;;;;;308.60;30.08;;;;;;;;;;5012714;28;20037;-28
2023/02/03 00:39:52;;;;;;;304.67;30.75;;;;;;;;;;5012767;28;20034;-28
2023/02/03 00:42:19;;;;;;;246.75;28.17;;;;;;;;;;5012447;28;20476;-28
2023/02/03 00:44:46;;;;;;;264.38;27.08;;;;;;;;;;5027636;28;20033;-29
2023/02/03 00:47:13;;;;;;;261.20;28.52;;;;;;;;;;5032157;28;20087;-28
2023/02/03 00:49:40;;;;;;;275.80;30.08;;;;;;;;;;5014456;28;20029;-28
2023/02/03 00:52:07;;;;;;;201.68;23.70;;;;;;;;;;5032242;28;20113;-28
2023/02/03 00:54:35;;;;;;;212.38;25.70;;;;;;;;;;5032167;28;20053;-28
2023/02/03 00:57:01;;;;;;;205.75;24.63;;;;;;;;;;5031786;28;20029;-29
2023/02/03 00:59:28;;;;;;;199.57;24.42;;;;;;;;;;5039696;28;20061;-29
2023/02/03 01:01:55;;;;;;;187.85;22.70;;;;;;;;;;5032326;28;20488;-29
2023/02/03 01:04:22;;;;;;;198.23;25.20;;;;;;;;;;5035926;28;20446;-30
2023/02/03 01:06:49;;;;;;;190.10;26.30;;;;;;;;;;5030455;28;20025;-29
2023/02/03 01:09:16;;;;;;;229.55;29.25;;;;;;;;;;5031814;28;20033;-29
2023/02/03 01:11:43;;;;;;;233.13;28.90;;;;;;;;;;5031896;28;20025;-29
2023/02/03 01:14:10;;;;;;;207.32;29.20;;;;;;;;;;5032100;28;20026;-29
2023/02/03 01:16:38;;;;;;;242.15;31.52;;;;;;;;;;5031666;28;20041;-29
2023/02/03 01:19:05;;;;;;;229.63;31.70;;;;;;;;;;5031025;28;20034;-29
2023/02/03 01:21:32;;;;;;;207.77;30.90;;;;;;;;;;5031654;28;20054;-29
2023/02/03 01:23:59;;;;;;;208.80;30.55;;;;;;;;;;5031947;28;20101;-29
2023/02/03 04:21:58;;;;;;;41.85;7.97;;;;;;;;;;5054894;28;20051;-27
2023/02/03 04:24:25;;;;;;;55.50;9.95;;;;;;;;;;5072682;28;20079;-27
2023/02/03 04:30:02;;;;;;;37.53;7.95;;;;;;;;;;5072688;28;20104;-26
2023/02/03 04:32:29;;;;;;;32.72;7.38;;;;;;;;;;5072569;28;20555;-27
2023/02/03 04:34:57;;;;;;;42.47;8.18;;;;;;;;;;5072378;28;20076;-27
2023/02/03 04:37:28;;;;;;;43.30;8.05;;;;;;;;;;5072239;28;20083;-27
2023/02/03 04:39:55;;;;;;;64.82;8.98;;;;;;;;;;5072517;28;20036;-27
2023/02/03 04:42:22;;;;;;;44.05;8.30;;;;;;;;;;5072281;28;20043;-27
2023/02/03 04:44:49;;;;;;;52.67;8.55;;;;;;;;;;5072018;28;20024;-27
2023/02/03 04:47:16;;;;;;;39.40;7.90;;;;;;;;;;5072217;28;20033;-27
2023/02/03 04:49:43;;;;;;;34.97;7.20;;;;;;;;;;5072235;28;20487;-27
2023/02/03 04:52:10;;;;;;;37.38;7.45;;;;;;;;;;5072286;28;20020;-27
2023/02/03 04:54:37;;;;;;;39.28;6.85;;;;;;;;;;5072075;28;20024;-27
2023/02/03 04:57:05;;;;;;;24.08;5.68;;;;;;;;;;5061937;28;20051;-27
2023/02/03 04:59:32;;;;;;;27.08;5.88;;;;;;;;;;5034074;28;20033;-26
2023/02/03 05:02:02;;;;;;;32.25;5.90;;;;;;;;;;5034146;28;20113;-27
2023/02/03 05:04:29;;;;;;;24.45;5.45;;;;;;;;;;5052055;28;20029;-27
2023/02/03 05:06:56;;;;;;;34.80;5.72;;;;;;;;;;5052060;28;20029;-27
2023/02/03 05:09:23;;;;;;;22.88;5.53;;;;;;;;;;5052008;28;20495;-27
2023/02/03 05:11:50;;;;;;;28.02;5.20;;;;;;;;;;5052099;28;20029;-27
2023/02/03 05:14:17;;;;;;;23.17;4.93;;;;;;;;;;5051995;28;20027;-27
2023/02/03 05:16:44;;;;;;;21.88;5.05;;;;;;;;;;5051871;28;20047;-27
2023/02/03 05:19:11;;;;;;;23.63;5.03;;;;;;;;;;5051939;28;20520;-26
2023/02/03 05:21:41;;;;;;;26.70;4.90;;;;;;;;;;5051800;28;20060;-26
2023/02/03 05:24:08;;;;;;;22.52;4.80;;;;;;;;;;5051900;28;20033;-26
2023/02/03 05:26:35;;;;;;;21.98;5.25;;;;;;;;;;5051836;28;20025;-26
2023/02/03 05:29:03;;;;;;;24.77;4.72;;;;;;;;;;5051727;28;20048;-27
2023/02/03 05:31:30;;;;;;;24.13;4.22;;;;;;;;;;5051846;28;20021;-27
2023/02/03 05:33:57;;;;;;;25.80;4.57;;;;;;;;;;5051562;28;20123;-27
2023/02/03 05:36:24;;;;;;;24.35;4.60;;;;;;;;;;5051704;28;20041;-27
2023/02/03 05:38:51;;;;;;;16.13;3.63;;;;;;;;;;5051657;28;20025;-27
2023/02/03 05:44:03;;;;;;;16.90;4.03;;;;;;;;;;5051809;28;20087;-27
2023/02/03 05:46:30;;;;;;;18.73;3.78;;;;;;;;;;5051705;28;20099;-26
2023/02/03 05:48:57;;;;;;;16.65;3.88;;;;;;;;;;5051575;28;20078;-26
2023/02/03 05:51:24;;;;;;;20.77;4.15;;;;;;;;;;5051485;28;20047;-27
2023/02/03 05:53:52;;;;;;;19.73;3.92;;;;;;;;;;5051313;28;20116;-27
2023/02/03 05:56:19;;;;;;;24.20;4.10;;;;;;;;;;5051140;28;20119;-26
2023/02/03 05:58:46;;;;;;;22.85;4.35;;;;;;;;;;5051301;28;20025;-26
2023/02/03 06:01:13;;;;;;;21.85;4.25;;;;;;;;;;5051442;28;20449;-27
2023/02/03 06:03:40;;;;;;;20.52;4.32;;;;;;;;;;5044233;28;20509;-27
2023/02/03 06:06:07;;;;;;;47.55;6.03;;;;;;;;;;5053450;28;20390;-26
2023/02/03 06:08:34;;;;;;;36.03;5.22;;;;;;;;;;5055129;28;20067;-26
2023/02/03 06:11:01;;;;;;;36.33;4.85;;;;;;;;;;5055359;28;20487;-26
2023/02/03 06:13:28;;;;;;;22.15;3.42;;;;;;;;;;5055277;28;20111;-27
2023/02/03 06:15:55;;;;;;;23.45;4.00;;;;;;;;;;5055155;28;20040;-27
2023/02/03 06:18:22;;;;;;;16.55;3.15;;;;;;;;;;5055155;28;20055;-27
2023/02/03 06:20:49;;;;;;;16.25;3.17;;;;;;;;;;5055180;28;20105;-26
2023/02/03 06:23:17;;;;;;;11.02;2.58;;;;;;;;;;5055047;28;20072;-27
2023/02/03 06:25:45;;;;;;;12.93;2.20;;;;;;;;;;5054425;28;20120;-27
2023/02/03 06:28:12;;;;;;;12.60;2.60;;;;;;;;;;5054202;28;20021;-27
2023/02/03 06:30:39;;;;;;;7.35;2.08;;;;;;;;;;5054443;28;20029;-27
2023/02/03 06:33:06;;;;;;;11.68;2.47;;;;;;;;;;5054695;28;20033;-27
2023/02/03 06:35:33;;;;;;;5.28;1.80;;;;;;;;;;5054548;28;20096;-27
2023/02/03 06:38:00;;;;;;;4.18;1.88;;;;;;;;;;5054625;28;20040;-27
2023/02/03 06:40:27;;;;;;;8.52;2.10;;;;;;;;;;5054607;28;20029;-27
2023/02/03 06:42:54;;;;;;;8.25;2.22;;;;;;;;;;5054680;28;20033;-27
2023/02/03 06:45:21;;;;;;;9.88;2.30;;;;;;;;;;5054776;28;20395;-27
2023/02/03 06:47:48;;;;;;;20.67;2.58;;;;;;;;;;5054582;28;20033;-27
2023/02/03 06:50:16;;;;;;;8.50;1.95;;;;;;;;;;5054570;28;20871;-27
2023/02/03 06:52:43;;;;;;;5.20;2.00;;;;;;;;;;5054640;28;20029;-26
2023/02/03 06:55:10;;;;;;;7.15;1.70;;;;;;;;;;5054497;28;20020;-26
2023/02/03 06:57:43;;;;;;;6.28;1.90;;;;;;;;;;5054360;28;20487;-26
2023/02/03 07:00:10;;;;;;;4.90;1.90;;;;;;;;;;5054451;28;20032;-26
2023/02/03 07:02:37;;;;;;;7.68;1.83;;;;;;;;;;5054422;28;20025;-27
2023/02/03 07:05:04;;;;;;;10.90;2.00;;;;;;;;;;5054410;28;20036;-26
2023/02/03 07:07:32;;;;;;;9.82;2.08;;;;;;;;;;5053972;28;20037;-26
2023/02/03 07:10:00;;;;;;;7.95;2.40;;;;;;;;;;5053863;28;20065;-26
2023/02/03 07:12:27;;;;;;;8.40;2.05;;;;;;;;;;5053730;28;20095;-26
2023/02/03 07:14:54;;;;;;;5.65;2.03;;;;;;;;;;5053906;28;20380;-26
2023/02/03 07:17:21;;;;;;;5.30;2.30;;;;;;;;;;5052537;28;20033;-26
2023/02/03 07:19:48;;;;;;;5.47;1.83;;;;;;;;;;5054015;28;20491;-26
2023/02/03 07:22:15;;;;;;;8.10;2.00;;;;;;;;;;5053715;28;20064;-26
2023/02/03 07:24:42;;;;;;;8.32;1.95;;;;;;;;;;5054028;28;20033;-26
2023/02/03 07:27:09;;;;;;;8.70;1.98;;;;;;;;;;5053807;28;20039;-26
2023/02/03 07:29:35;;;;;;;4.80;2.13;;;;;;;;;;5053903;28;20029;-26
2023/02/03 07:32:02;;;;;;;3.88;1.88;;;;;;;;;;5052359;28;20494;-26
2023/02/03 07:34:29;;;;;;;8.77;2.35;;;;;;;;;;5053808;28;20029;-26
2023/02/03 07:36:57;;;;;;;8.85;2.00;;;;;;;;;;5053681;28;20371;-26
2023/02/03 07:39:24;;;;;;;9.25;2.35;;;;;;;;;;5053701;28;20033;-26
2023/02/03 07:41:51;;;;;;;8.30;2.38;;;;;;;;;;5053780;28;20390;-26
2023/02/03 07:44:18;;;;;;;6.65;2.05;;;;;;;;;;5053495;28;20478;-26
2023/02/03 07:46:45;;;;;;;9.00;2.28;;;;;;;;;;5053641;28;20509;-26
2023/02/03 07:49:12;;;;;;;6.22;2.45;;;;;;;;;;5053485;28;20067;-26
2023/02/03 07:51:39;;;;;;;8.38;2.22;;;;;;;;;;5053344;28;20368;-26
2023/02/03 07:54:07;;;;;;;6.80;2.28;;;;;;;;;;5053516;28;20029;-26
2023/02/03 07:56:34;;;;;;;5.55;2.05;;;;;;;;;;5053286;28;20029;-26
2023/02/03 07:59:01;;;;;;;8.25;2.33;;;;;;;;;;5053314;28;20036;-26
2023/02/03 08:01:28;;;;;;;5.53;2.05;;;;;;;;;;5053242;28;20032;-26
2023/02/03 08:03:55;;;;;;;7.57;1.92;;;;;;;;;;5053123;28;20029;-26
2023/02/03 08:06:22;;;;;;;8.52;1.98;;;;;;;;;;5053210;28;20021;-26
2023/02/03 08:08:49;;;;;;;8.27;2.03;;;;;;;;;;5053067;28;20021;-26
2023/02/03 08:11:16;;;;;;;10.00;2.35;;;;;;;;;;5052859;28;20565;-26
2023/02/03 08:13:43;;;;;;;10.65;1.92;;;;;;;;;;5053120;28;20163;-26
2023/02/03 08:16:10;;;;;;;8.60;2.03;;;;;;;;;;5052957;28;20033;-26
2023/02/03 08:18:38;;;;;;;5.70;2.35;;;;;;;;;;5052908;28;20032;-26
2023/02/03 08:21:05;;;;;;;3.55;1.88;;;;;;;;;;5052813;28;20029;-26
2023/02/03 08:23:32;;;;;;;5.13;2.13;;;;;;;;;;5052516;28;20057;-26
2023/02/03 08:25:59;;;;;;;8.80;2.30;;;;;;;;;;5052657;28;20453;-26
2023/02/03 08:28:26;;;;;;;7.65;2.40;;;;;;;;;;5052094;28;20029;-26
2023/02/03 08:30:53;;;;;;;7.05;2.40;;;;;;;;;;5052687;28;20037;-26
2023/02/03 08:33:20;;;;;;;4.75;2.05;;;;;;;;;;5052666;28;20029;-26
2023/02/03 08:35:47;;;;;;;7.72;2.08;;;;;;;;;;5052517;28;20391;-26
2023/02/03 08:38:14;;;;;;;8.35;2.20;;;;;;;;;;5052426;28;20075;-26
2023/02/03 08:40:41;;;;;;;8.82;2.40;;;;;;;;;;5052638;28;20021;-26
2023/02/03 08:43:09;;;;;;;7.88;2.10;;;;;;;;;;5052533;28;20036;-26
2023/02/03 08:45:36;;;;;;;8.02;2.55;;;;;;;;;;5052415;28;20121;-26
2023/02/03 08:48:03;;;;;;;8.70;2.50;;;;;;;;;;5052300;28;20023;-26
2023/02/03 08:50:30;;;;;;;7.00;2.15;;;;;;;;;;5052274;28;20037;-26
2023/02/03 08:52:57;;;;;;;10.40;2.00;;;;;;;;;;5050960;28;20485;-26
2023/02/03 08:55:24;;;;;;;8.02;2.33;;;;;;;;;;5052333;28;20094;-26
2023/02/03 08:57:51;;;;;;;7.70;2.33;;;;;;;;;;5052016;28;20025;-26
2023/02/03 09:00:18;;;;;;;7.65;2.10;;;;;;;;;;5052227;28;20051;-26
2023/02/03 09:02:45;;;;;;;11.77;2.70;;;;;;;;;;5052247;28;20033;-26
2023/02/03 09:05:12;;;;;;;5.63;2.08;;;;;;;;;;5052188;28;20070;-26
2023/02/03 09:07:39;;;;;;;6.00;2.10;;;;;;;;;;5052094;28;20033;-26
2023/02/03 09:10:06;;;;;;;5.90;2.28;;;;;;;;;;5052106;28;20033;-26
2023/02/03 09:12:33;;;;;;;8.55;2.38;;;;;;;;;;5051998;28;20024;-26
2023/02/03 09:15:00;;;;;;;7.57;2.30;;;;;;;;;;5052008;28;20032;-26
2023/02/03 09:17:27;;;;;;;10.25;2.30;;;;;;;;;;5051828;28;20025;-26
2023/02/03 09:19:54;;;;;;;7.43;2.33;;;;;;;;;;5051977;28;20491;-26
2023/02/03 09:22:21;;;;;;;11.93;2.40;;;;;;;;;;5051815;28;20049;-26
2023/02/03 09:24:50;;;;;;;14.32;2.58;;;;;;;;;;5051889;28;20482;-26
2023/02/03 09:27:17;;;;;;;11.32;2.72;;;;;;;;;;5051576;28;20471;-26
2023/02/03 09:29:44;;;;;;;8.48;2.60;;;;;;;;;;5051757;28;20462;-26
2023/02/03 09:32:11;;;;;;;9.05;2.38;;;;;;;;;;5051776;28;20033;-26
2023/02/03 09:34:40;;;;;;;17.95;2.90;;;;;;;;;;5051817;28;20029;-26
2023/02/03 09:37:07;;;;;;;11.48;3.00;;;;;;;;;;5051533;28;20029;-26
2023/02/03 09:39:34;;;;;;;9.48;2.80;;;;;;;;;;5051707;28;20419;-26
2023/02/03 09:42:04;;;;;;;7.70;2.58;;;;;;;;;;5055693;28;20028;-26
2023/02/03 09:44:42;;;;;;;7.55;2.80;;;;;;;;;;5055854;28;20525;-26
2023/02/03 09:47:22;;;;;;;12.77;3.05;;;;;;;;;;5055657;28;20036;-26
2023/02/03 09:49:51;;;;;;;11.45;2.92;;;;;;;;;;5055858;28;20782;-26
2023/02/03 09:52:23;;;;;;;9.48;2.70;;;;;;;;;;5054344;28;20061;-26
2023/02/03 09:54:53;;;;;;;11.30;2.63;;;;;;;;;;5055691;28;20017;-26
2023/02/03 09:57:22;;;;;;;16.35;3.65;;;;;;;;;;5055465;28;20045;-26
2023/02/03 09:59:50;;;;;;;13.32;3.03;;;;;;;;;;5055662;28;20041;-26
2023/02/03 10:02:25;;;;;;;12.68;3.20;;;;;;;;;;5055660;28;20053;-26
2023/02/03 10:04:55;;;;;;;18.88;3.58;;;;;;;;;;5055508;28;20021;-26
2023/02/03 10:07:27;;;;;;;21.27;3.50;;;;;;;;;;5055404;28;20059;-26
2023/02/03 10:09:54;;;;;;;14.30;3.45;;;;;;;;;;5055312;28;20036;-26
2023/02/03 10:12:21;;;;;;;25.23;3.33;;;;;;;;;;5055273;28;20064;-26
2023/02/03 10:15:06;;;;;;;15.35;3.33;;;;;;;;;;5055369;28;20025;-26
2023/02/03 10:17:33;;;;;;;15.77;2.97;;;;;;;;;;5055053;28;20061;-26
2023/02/03 10:20:03;;;;;;;10.98;2.70;;;;;;;;;;5055284;28;20033;-26
2023/02/03 10:22:31;;;;;;;17.95;3.70;;;;;;;;;;5055122;28;20529;-26
2023/02/03 10:24:58;;;;;;;21.85;3.20;;;;;;;;;;5055159;28;20056;-26
2023/02/03 10:27:25;;;;;;;16.48;3.70;;;;;;;;;;5055051;28;20086;-26
2023/02/03 10:30:18;;;;;;;18.45;3.38;;;;;;;;;;5055156;28;20025;-26
2023/02/03 10:32:45;;;;;;;28.13;4.53;;;;;;;;;;5051019;28;20053;-26
2023/02/03 10:35:13;;;;;;;29.80;5.18;;;;;;;;;;5055021;28;20028;-26
2023/02/03 10:37:45;;;;;;;28.95;4.50;;;;;;;;;;5054866;28;20135;-26
2023/02/03 10:40:14;;;;;;;17.65;4.32;;;;;;;;;;5054939;28;20032;-26
2023/02/03 10:45:28;;;;;;;25.08;4.43;;;;;;;;;;5055090;28;20082;-26
2023/02/03 10:47:55;;;;;;;18.50;4.13;;;;;;;;;;5054733;28;20064;-26
2023/02/03 10:50:30;;;;;;;14.50;3.80;;;;;;;;;;5053194;28;20514;-26
2023/02/03 10:53:15;;;;;;;13.02;3.67;;;;;;;;;;5054298;28;20037;-26
2023/02/03 10:55:42;;;;;;;16.30;4.07;;;;;;;;;;5054616;28;20021;-26
2023/02/03 10:58:14;;;;;;;13.75;3.83;;;;;;;;;;5054383;28;20136;-26
2023/02/03 11:00:41;;;;;;;29.02;4.78;;;;;;;;;;5054518;28;20025;-26
2023/02/03 11:03:16;;;;;;;20.38;4.50;;;;;;;;;;5054471;28;20047;-26
2023/02/03 11:05:43;;;;;;;15.55;3.72;;;;;;;;;;5054451;28;20025;-26
2023/02/03 11:08:17;;;;;;;20.80;3.90;;;;;;;;;;5054360;28;20084;-26
2023/02/03 11:10:44;;;;;;;19.95;4.07;;;;;;;;;;5054270;28;20103;-26
2023/02/03 11:13:11;;;;;;;47.00;5.30;;;;;;;;;;5054082;28;20033;-26
2023/02/03 11:15:38;;;;;;;25.40;4.85;;;;;;;;;;5054170;28;20065;-26
2023/02/03 11:18:05;;;;;;;46.38;5.63;;;;;;;;;;5054087;28;20069;-26
2023/02/03 11:20:36;;;;;;;50.05;5.85;;;;;;;;;;5054150;28;20429;-26
2023/02/03 11:23:05;;;;;;;25.23;4.13;;;;;;;;;;5053936;28;20056;-26
2023/02/03 11:25:33;;;;;;;23.88;4.05;;;;;;;;;;5053964;28;20033;-26
2023/02/03 11:28:05;;;;;;;22.10;3.70;;;;;;;;;;5053827;28;20064;-26
2023/02/03 11:30:32;;;;;;;15.57;3.50;;;;;;;;;;5054007;28;20044;-26
2023/02/03 11:33:03;;;;;;;15.60;3.20;;;;;;;;;;5053928;28;20021;-26
2023/02/03 11:35:32;;;;;;;14.80;2.78;;;;;;;;;;5053829;28;20025;-26
2023/02/03 11:38:00;;;;;;;13.88;3.80;;;;;;;;;;5053522;28;20036;-26
2023/02/03 11:40:32;;;;;;;21.80;3.92;;;;;;;;;;5053792;28;20041;-26
2023/02/03 11:43:01;;;;;;;21.48;3.95;;;;;;;;;;5053648;28;20457;-26
2023/02/03 11:45:30;;;;;;;25.58;4.00;;;;;;;;;;5053565;28;20029;-31
2023/02/03 11:48:06;;;;;;;12.98;4.00;;;;;;;;;;5053508;28;20067;-26
2023/02/03 11:50:32;;;;;;;13.95;3.30;;;;;;;;;;5053610;28;20364;-26
2023/02/03 11:53:12;;;;;;;9.25;3.17;;;;;;;;;;5053585;28;20025;-26
2023/02/03 11:56:17;;;;;;;12.15;3.35;;;;;;;;;;5053407;28;20182;-26
2023/02/03 11:58:53;;;;;;;32.95;4.20;;;;;;;;;;4953152;29;20046;-26
2023/02/03 12:01:26;;;;;;;28.05;4.13;;;;;;;;;;4959108;28;20023;-26
2023/02/03 12:03:56;;;;;;;13.45;3.95;;;;;;;;;;5031010;28;20486;-26
2023/02/03 12:06:33;;;;;;;22.45;3.65;;;;;;;;;;5073196;28;20032;-27
2023/02/03 12:09:29;;;;;;;14.52;3.25;;;;;;;;;;5073161;28;20028;-27
2023/02/03 12:11:56;;;;;;;19.95;3.38;;;;;;;;;;5051968;28;20127;-26
2023/02/03 12:14:39;;;;;;;29.67;4.47;;;;;;;;;;5073044;28;20517;-26
2023/02/03 12:17:14;;;;;;;24.92;3.80;;;;;;;;;;5073010;28;20483;-26
2023/02/03 12:19:43;;;;;;;27.00;3.97;;;;;;;;;;5072985;28;20486;-26
2023/02/03 12:22:29;;;;;;;17.42;3.35;;;;;;;;;;5072739;28;20175;-26
2023/02/03 12:25:05;;;;;;;13.27;3.15;;;;;;;;;;5072811;28;20028;-27
2023/02/03 12:27:47;;;;;;;16.38;2.70;;;;;;;;;;5066547;28;20016;-27
2023/02/03 12:30:18;;;;;;;14.82;3.10;;;;;;;;;;5072130;28;20044;-26
2023/02/03 12:32:58;;;;;;;11.10;3.13;;;;;;;;;;5072476;28;20078;-26
2023/02/03 12:35:33;;;;;;;11.05;3.00;;;;;;;;;;5072651;28;20036;-26
2023/02/03 12:38:26;;;;;;;11.30;2.80;;;;;;;;;;5072460;28;20104;-27
2023/02/03 12:41:00;;;;;;;21.30;2.65;;;;;;;;;;5041605;28;20037;-26
2023/02/03 12:43:36;;;;;;;11.52;2.45;;;;;;;;;;5072548;28;20039;-26
2023/02/03 12:46:17;;;;;;;20.35;3.38;;;;;;;;;;5072440;28;20033;-26
2023/02/03 12:49:03;;;;;;;10.93;2.60;;;;;;;;;;5072307;28;20033;-26
2023/02/03 12:51:30;;;;;;;12.43;2.75;;;;;;;;;;5072356;28;20029;-26
2023/02/03 12:54:00;;;;;;;12.98;2.40;;;;;;;;;;5072491;28;20078;-26
2023/02/03 12:56:29;;;;;;;11.02;2.60;;;;;;;;;;5072063;28;20032;-26
2023/02/03 12:59:00;;;;;;;10.82;2.97;;;;;;;;;;5072270;28;20108;-26
2023/02/03 13:01:33;;;;;;;27.15;3.10;;;;;;;;;;5072140;28;20063;-27
2023/02/03 13:04:25;;;;;;;12.43;2.70;;;;;;;;;;5072072;28;20781;-26
2023/02/03 13:07:04;;;;;;;10.15;2.50;;;;;;;;;;5071872;28;20029;-26
2023/02/03 13:09:37;;;;;;;19.10;3.33;;;;;;;;;;5071658;28;20025;-26
2023/02/03 13:12:24;;;;;;;25.30;3.03;;;;;;;;;;5072066;28;20063;-26
2023/02/03 13:14:57;;;;;;;17.30;3.10;;;;;;;;;;5071891;28;20465;-26
2023/02/03 13:17:24;;;;;;;18.67;2.58;;;;;;;;;;5062396;28;20120;-26
2023/02/03 13:20:03;;;;;;;17.92;3.63;;;;;;;;;;5058240;28;20168;-27
2023/02/03 13:22:30;;;;;;;15.52;2.55;;;;;;;;;;5052579;28;20058;-26
2023/02/03 13:25:02;;;;;;;22.60;3.20;;;;;;;;;;5058779;28;20123;-27
2023/02/03 13:27:35;;;;;;;23.90;3.83;;;;;;;;;;5062828;28;20021;-27
2023/02/03 13:30:11;;;;;;;23.95;3.83;;;;;;;;;;5058226;28;20029;-27
2023/02/03 13:32:38;;;;;;;26.45;3.40;;;;;;;;;;5057191;28;20021;-27
2023/02/03 13:35:11;;;;;;;28.63;3.58;;;;;;;;;;5062618;28;20380;-27
2023/02/03 13:37:45;;;;;;;35.72;4.90;;;;;;;;;;5057530;28;20025;-27
2023/02/03 13:40:29;;;;;;;35.30;5.43;;;;;;;;;;5053710;28;20043;-27
2023/02/03 13:43:00;;;;;;;30.15;5.43;;;;;;;;;;5041918;28;20378;-27
2023/02/03 13:45:26;;;;;;;26.85;5.43;;;;;;;;;;5059878;28;20021;-27
2023/02/03 13:47:56;;;;;;;31.75;6.00;;;;;;;;;;5060705;28;20017;-27
2023/02/03 13:50:23;;;;;;;34.70;5.15;;;;;;;;;;5062009;28;20028;-27
2023/02/03 13:52:56;;;;;;;23.88;4.53;;;;;;;;;;5038787;28;20027;-27
2023/02/03 13:55:28;;;;;;;25.45;4.53;;;;;;;;;;5030782;28;20025;-27
2023/02/03 13:57:55;;;;;;;33.03;4.32;;;;;;;;;;5030825;28;20037;-27
2023/02/03 14:00:41;;;;;;;30.35;5.10;;;;;;;;;;5030237;28;20021;-27
2023/02/03 14:03:15;;;;;;;20.65;4.45;;;;;;;;;;5037545;28;20068;-27
2023/02/03 14:05:53;;;;;;;22.40;4.68;;;;;;;;;;5030855;28;20041;-27
2023/02/03 14:08:26;;;;;;;19.67;4.75;;;;;;;;;;5033586;28;20044;-28
2023/02/03 14:11:11;;;;;;;27.13;4.50;;;;;;;;;;5047920;28;20082;-27
2023/02/03 14:13:38;;;;;;;18.67;4.30;;;;;;;;;;5050391;28;20055;-27
2023/02/03 14:16:24;;;;;;;25.98;4.85;;;;;;;;;;5031899;28;20045;-27
2023/02/03 14:18:53;;;;;;;34.00;5.78;;;;;;;;;;5050636;28;20057;-27
2023/02/03 14:21:22;;;;;;;29.58;5.15;;;;;;;;;;5048918;28;20033;-28
2023/02/03 14:23:51;;;;;;;31.27;5.57;;;;;;;;;;5045259;28;20513;-28
2023/02/03 14:26:20;;;;;;;29.88;5.47;;;;;;;;;;5035259;28;20390;-27
2023/02/03 14:28:49;;;;;;;29.73;5.22;;;;;;;;;;5048111;28;20113;-28
2023/02/03 14:31:23;;;;;;;28.77;5.35;;;;;;;;;;5047870;28;20098;-29
2023/02/03 14:33:54;;;;;;;33.72;5.65;;;;;;;;;;5035653;28;20093;-31
2023/02/03 14:36:33;;;;;;;35.58;4.90;;;;;;;;;;5039663;28;20060;-28
2023/02/03 14:39:03;;;;;;;28.23;5.00;;;;;;;;;;5052651;28;21363;-28
2023/02/03 14:41:43;;;;;;;29.17;5.32;;;;;;;;;;5053314;28;20029;-27
2023/02/03 14:44:13;;;;;;;27.88;6.07;;;;;;;;;;5023878;28;20041;-27
2023/02/03 14:46:54;;;;;;;30.52;6.20;;;;;;;;;;5051801;28;20106;-27
2023/02/03 14:49:24;;;;;;;39.50;5.82;;;;;;;;;;5052028;28;20055;-27
2023/02/03 14:52:11;;;;;;;26.25;5.75;;;;;;;;;;5052029;28;20021;-27
2023/02/03 14:54:58;;;;;;;34.42;5.80;;;;;;;;;;4992139;28;20041;-27
2023/02/03 14:57:48;;;;;;;30.77;6.47;;;;;;;;;;5051721;28;20044;-27
2023/02/03 15:00:22;;;;;;;27.58;5.85;;;;;;;;;;5034829;28;20369;-27
2023/02/03 15:03:10;;;;;;;27.17;5.63;;;;;;;;;;5052959;28;20037;-27
2023/02/03 15:05:51;;;;;;;29.90;6.53;;;;;;;;;;5052961;28;20048;-27
2023/02/03 15:08:32;;;;;;;39.65;7.10;;;;;;;;;;5053038;28;20029;-27
2023/02/03 15:10:59;;;;;;;43.83;8.95;;;;;;;;;;5052821;28;20044;-27
2023/02/03 15:13:27;;;;;;;50.80;8.80;;;;;;;;;;5045684;28;20040;-27
2023/02/03 15:15:59;;;;;;;62.80;9.45;;;;;;;;;;5048662;28;20564;-27
2023/02/03 15:18:31;;;;;;;63.00;10.48;;;;;;;;;;5049724;28;20401;-27
2023/02/03 15:20:58;;;;;;;67.95;11.13;;;;;;;;;;5052165;28;20079;-28
2023/02/03 15:23:26;;;;;;;66.43;11.40;;;;;;;;;;4946099;28;3062676;-27
2023/02/03 15:25:54;;;;;;;71.63;10.95;;;;;;;;;;5053278;28;20032;-27
2023/02/03 15:28:22;;;;;;;67.25;10.80;;;;;;;;;;5053192;28;20051;-27
2023/02/03 15:31:11;;;;;;;69.78;11.88;;;;;;;;;;5053224;28;20029;-27
2023/02/03 15:33:43;;;;;;;65.28;9.65;;;;;;;;;;5052386;28;20589;-27
2023/02/03 15:36:16;;;;;;;62.05;9.68;;;;;;;;;;5052786;28;20037;-28
2023/02/03 15:38:46;;;;;;;64.43;11.55;;;;;;;;;;5049155;28;20079;-27
2023/02/03 15:41:24;;;;;;;63.80;11.98;;;;;;;;;;5041065;28;20116;-28
2023/02/03 15:43:54;;;;;;;61.08;10.82;;;;;;;;;;5034217;28;20111;-28
2023/02/03 15:46:29;;;;;;;51.47;10.02;;;;;;;;;;5033135;28;20029;-29
2023/02/03 15:48:59;;;;;;;49.60;8.90;;;;;;;;;;5037973;28;20029;-31
2023/02/03 15:51:46;;;;;;;49.03;8.63;;;;;;;;;;5033468;28;20033;-29
2023/02/03 15:54:18;;;;;;;46.78;8.60;;;;;;;;;;5033087;28;20041;-30
2023/02/03 15:56:57;;;;;;;34.03;8.25;;;;;;;;;;5052924;28;20043;-28
2023/02/03 15:59:26;;;;;;;34.25;7.90;;;;;;;;;;5052499;28;20059;-29
2023/02/03 16:01:54;;;;;;;35.85;7.82;;;;;;;;;;5053074;28;20086;-29
2023/02/03 16:04:21;;;;;;;38.05;8.20;;;;;;;;;;5052740;28;20027;-28
2023/02/03 16:06:49;;;;;;;43.63;8.55;;;;;;;;;;5049668;28;20074;-29
2023/02/03 16:09:33;;;;;;;41.80;7.15;;;;;;;;;;5039078;28;20505;-28
2023/02/03 16:12:07;;;;;;;42.05;8.35;;;;;;;;;;5052650;28;20442;-28
2023/02/03 16:14:35;;;;;;;42.75;7.97;;;;;;;;;;5052461;28;20036;-28
2023/02/03 16:17:03;;;;;;;46.15;7.45;;;;;;;;;;5052201;28;20465;-29
2023/02/03 16:19:33;;;;;;;39.38;8.10;;;;;;;;;;5052476;28;20041;-29
2023/02/03 16:22:00;;;;;;;39.58;7.63;;;;;;;;;;5046812;28;20061;-29
2023/02/03 16:24:33;;;;;;;38.75;7.68;;;;;;;;;;5042661;28;20379;-29
2023/02/03 16:27:18;;;;;;;38.45;7.20;;;;;;;;;;5052377;28;20542;-29
2023/02/03 16:51:53;;;;;;;38.50;8.55;;;;;;;;;;5051315;28;20052;-29
2023/02/03 16:54:20;;;;;;;42.65;9.13;;;;;;;;;;5045181;28;20561;-29
2023/02/03 16:56:48;;;;;;;34.78;8.27;;;;;;;;;;5031377;28;20040;-29
2023/02/03 16:59:15;;;;;;;38.22;8.63;;;;;;;;;;5035119;28;20041;-29
2023/02/03 17:01:43;;;;;;;37.85;8.38;;;;;;;;;;5034722;28;20033;-31
2023/02/03 17:04:10;;;;;;;37.78;7.95;;;;;;;;;;5036474;28;20395;-30
2023/02/03 17:06:38;;;;;;;38.72;7.90;;;;;;;;;;5029080;28;20506;-28
2023/02/03 17:09:05;;;;;;;36.88;8.05;;;;;;;;;;5049687;28;20040;-28
2023/02/03 17:11:32;;;;;;;45.35;7.63;;;;;;;;;;5050219;28;20051;-29
2023/02/03 17:13:59;;;;;;;45.95;7.38;;;;;;;;;;5047297;28;20059;-29
2023/02/03 17:16:27;;;;;;;54.05;8.23;;;;;;;;;;5050204;28;20534;-29
2023/02/03 17:18:54;;;;;;;41.20;7.03;;;;;;;;;;5050892;28;20029;-30
2023/02/03 17:21:25;;;;;;;41.63;6.72;;;;;;;;;;5049502;28;20433;-31
2023/02/03 17:23:52;;;;;;;34.38;6.57;;;;;;;;;;5047188;28;20043;-30
2023/02/03 17:26:19;;;;;;;47.75;6.93;;;;;;;;;;5049418;28;20653;-30
2023/02/03 17:28:46;;;;;;;41.33;7.22;;;;;;;;;;5049975;28;20037;-29
2023/02/03 17:31:15;;;;;;;29.02;5.50;;;;;;;;;;5050135;28;20111;-30
2023/02/03 17:33:42;;;;;;;31.58;5.75;;;;;;;;;;5046045;28;20033;-30
2023/02/03 17:36:13;;;;;;;25.23;5.50;;;;;;;;;;5042254;28;20025;-30
2023/02/03 17:38:42;;;;;;;33.60;5.30;;;;;;;;;;5049254;28;20533;-30
2023/02/03 17:41:13;;;;;;;30.00;5.60;;;;;;;;;;5049856;28;20065;-29
2023/02/03 17:43:40;;;;;;;28.25;6.13;;;;;;;;;;5046726;28;20036;-30
2023/02/03 17:46:07;;;;;;;28.52;5.80;;;;;;;;;;5031981;28;20031;-29
2023/02/03 17:48:35;;;;;;;26.90;5.53;;;;;;;;;;5049715;28;20033;-30
2023/02/03 17:51:08;;;;;;;27.23;5.20;;;;;;;;;;5044357;28;20032;-30
2023/02/03 17:53:37;;;;;;;22.40;5.07;;;;;;;;;;5043732;28;20364;-31
2023/02/03 17:56:10;;;;;;;24.13;5.50;;;;;;;;;;5049304;28;20130;-31
2023/02/03 17:58:37;;;;;;;25.98;5.25;;;;;;;;;;5050278;28;20695;-30
2023/02/03 18:01:14;;;;;;;28.33;4.63;;;;;;;;;;5051363;28;20040;-29
2023/02/03 18:25:15;;;;;;;28.23;5.28;;;;;;;;;;5129394;27;20484;-28
2023/02/03 18:27:43;;;;;;;24.95;4.80;;;;;;;;;;5094575;28;20121;-28
2023/02/03 18:30:10;;;;;;;24.10;4.53;;;;;;;;;;5087760;28;20127;-28
2023/02/03 18:32:37;;;;;;;26.90;5.18;;;;;;;;;;5089668;28;20024;-28